createdAt,value
2022-12-01T00:01:39.374Z,101433.34
2022-12-01T00:06:47.111Z,101436.84
2022-12-01T00:11:54.844Z,101436.35
2022-12-01T00:17:02.494Z,101434.09
2022-12-01T00:22:10.291Z,101432.35
2022-12-01T00:27:17.896Z,101431.66
2022-12-01T00:32:25.433Z,101430.18
2022-12-01T00:37:33.557Z,101431.86
2022-12-01T00:42:41.600Z,101428.13
2022-12-01T00:47:49.237Z,101427.91
2022-12-01T00:52:56.839Z,101424.20
2022-12-01T00:58:04.994Z,101428.02
2022-12-01T01:03:13.456Z,101427.49
2022-12-01T01:08:21.273Z,101430.27
2022-12-01T01:13:29.515Z,101432.17
2022-12-01T01:18:37.562Z,101428.85
2022-12-01T01:23:45.810Z,101427.63
2022-12-01T01:28:54.154Z,101422.39
2022-12-01T01:34:02.245Z,101413.19
2022-12-01T01:39:09.977Z,101407.09
2022-12-01T01:44:51.791Z,101405.52
2022-12-01T01:50:06.677Z,101397.52
2022-12-01T01:55:15.639Z,101393.15
2022-12-01T02:00:25.209Z,101393.31
2022-12-01T02:05:35.997Z,101392.62
2022-12-01T02:11:01.790Z,101393.13
2022-12-01T02:16:16.696Z,101391.38
2022-12-01T02:21:39.232Z,101385.42
2022-12-01T02:26:52.875Z,101387.17
2022-12-01T02:32:07.112Z,101390.96
2022-12-01T02:37:23.430Z,101393.05
2022-12-01T02:42:54.804Z,101390.77
2022-12-01T02:48:07.135Z,101385.20
2022-12-01T02:53:17.557Z,101386.56
2022-12-01T02:58:25.498Z,101387.42
2022-12-01T03:03:56.808Z,101388.45
2022-12-01T03:09:16.708Z,101386.17
2022-12-01T03:14:33.728Z,101381.48
2022-12-01T03:19:46.561Z,101380.80
2022-12-01T03:24:57.172Z,101379.58
2022-12-01T03:30:11.086Z,101378.02
2022-12-01T03:35:23.237Z,101381.69
2022-12-01T03:40:33.052Z,101380.63
2022-12-01T03:45:49.264Z,101383.61
2022-12-01T03:51:05.445Z,101377.85
2022-12-01T03:56:15.891Z,101376.30
2022-12-01T04:01:24.015Z,101378.39
2022-12-01T04:06:31.557Z,101374.21
2022-12-01T04:11:56.774Z,101378.40
2022-12-01T04:17:04.957Z,101380.31
2022-12-01T04:22:12.965Z,101377.52
2022-12-01T04:27:20.438Z,101378.02
2022-12-01T04:32:28.149Z,101378.02
2022-12-01T04:37:36.048Z,101367.33
2022-12-01T04:42:43.588Z,101380.45
2022-12-01T04:47:54.566Z,101379.05
2022-12-01T04:53:02.390Z,101384.60
2022-12-01T04:58:10.030Z,101383.91
2022-12-01T05:03:18.005Z,101384.77
2022-12-01T05:08:25.254Z,101383.36
2022-12-01T05:13:32.840Z,101384.77
2022-12-01T05:18:41.571Z,101380.77
2022-12-01T05:23:49.594Z,101374.85
2022-12-01T05:28:57.428Z,101374.67
2022-12-01T05:34:05.147Z,101370.84
2022-12-01T05:39:12.616Z,101373.98
2022-12-01T05:44:20.507Z,101371.35
2022-12-01T05:49:27.906Z,101377.43
2022-12-01T05:54:35.982Z,101377.41
2022-12-01T05:59:43.762Z,101383.33
2022-12-01T06:04:51.467Z,101384.52
2022-12-01T06:09:59.141Z,101387.29
2022-12-01T06:15:08.117Z,101381.70
2022-12-01T06:20:16.863Z,101382.36
2022-12-01T06:25:24.743Z,101382.36
2022-12-01T06:30:32.579Z,101370.58
2022-12-01T06:35:40.914Z,101384.09
2022-12-01T06:40:49.068Z,101388.59
2022-12-01T06:46:01.661Z,101383.88
2022-12-01T06:51:11.123Z,101389.98
2022-12-01T06:56:19.020Z,101385.41
2022-12-01T07:01:27.458Z,101389.27
2022-12-01T07:06:35.184Z,101390.30
2022-12-01T07:11:42.713Z,101391.68
2022-12-01T07:16:50.401Z,101391.33
2022-12-01T07:21:58.326Z,101390.98
2022-12-01T07:27:05.879Z,101395.35
2022-12-01T07:32:13.629Z,101399.87
2022-12-01T07:37:21.279Z,101396.94
2022-12-01T07:42:28.954Z,101401.80
2022-12-01T07:47:36.701Z,101402.35
2022-12-01T07:52:44.710Z,101395.73
2022-12-01T07:57:52.556Z,101400.11
2022-12-01T08:03:00.334Z,101400.64
2022-12-01T08:08:08.682Z,101398.38
2022-12-01T08:13:17.549Z,101403.09
2022-12-01T08:18:25.939Z,101407.09
2022-12-01T08:23:33.948Z,101406.21
2022-12-01T08:28:42.262Z,101404.99
2022-12-01T08:33:51.128Z,101408.30
2022-12-01T08:38:59.116Z,101413.33
2022-12-01T08:44:07.022Z,101412.98
2022-12-01T08:49:14.873Z,101414.56
2022-12-01T08:54:22.623Z,101414.20
2022-12-01T08:59:31.063Z,101417.00
2022-12-01T09:04:38.898Z,101411.77
2022-12-01T09:09:47.924Z,101407.93
2022-12-01T09:14:55.716Z,101410.19
2022-12-01T09:20:04.038Z,101403.42
2022-12-01T09:25:15.409Z,101398.20
2022-12-01T09:30:23.516Z,101395.95
2022-12-01T09:35:32.720Z,101388.08
2022-12-01T09:40:42.277Z,101379.41
2022-12-01T09:45:53.268Z,101371.75
2022-12-01T09:51:01.444Z,101368.45
2022-12-01T09:56:18.963Z,101371.61
2022-12-01T10:01:33.151Z,101375.27
2022-12-01T10:06:46.420Z,101362.77
2022-12-01T10:11:57.234Z,101358.45
2022-12-01T10:17:13.545Z,101353.95
2022-12-01T10:22:46.299Z,101351.86
2022-12-01T10:28:07.666Z,101349.42
2022-12-01T10:33:25.433Z,101345.77
2022-12-01T10:38:37.262Z,101356.38
2022-12-01T10:43:47.947Z,101357.80
2022-12-01T10:49:00.940Z,101355.70
2022-12-01T10:54:13.627Z,101349.92
2022-12-01T10:59:36.309Z,101353.25
2022-12-01T11:04:48.027Z,101354.30
2022-12-01T11:10:07.774Z,101344.83
2022-12-01T11:15:27.942Z,101350.30
2022-12-01T11:20:38.498Z,101339.29
2022-12-01T11:25:58.306Z,101344.55
2022-12-01T11:31:08.523Z,101346.89
2022-12-01T11:36:26.925Z,101345.16
2022-12-01T11:41:38.700Z,101341.70
2022-12-01T11:46:55.743Z,101335.46
2022-12-01T11:52:29.147Z,101333.89
2022-12-01T11:57:37.025Z,101327.97
2022-12-01T12:02:55.222Z,101331.98
2022-12-01T12:08:11.798Z,101325.89
2022-12-01T12:13:42.520Z,101324.86
2022-12-01T12:19:03.698Z,101326.42
2022-12-01T12:24:34.519Z,101320.14
2022-12-01T12:29:55.824Z,101324.14
2022-12-01T12:35:11.627Z,101326.39
2022-12-01T12:40:36.334Z,101325.50
2022-12-01T12:45:56.522Z,101330.89
2022-12-01T12:51:15.394Z,101327.04
2022-12-01T12:56:28.816Z,101327.04
2022-12-01T13:01:41.175Z,101316.59
2022-12-01T13:06:53.981Z,101315.36
2022-12-01T13:12:08.736Z,101302.46
2022-12-01T13:17:23.872Z,101301.40
2022-12-01T13:22:36.202Z,101308.71
2022-12-01T13:27:43.720Z,101312.86
2022-12-01T13:32:59.580Z,101315.61
2022-12-01T13:38:30.119Z,101316.80
2022-12-01T13:43:38.977Z,101313.99
2022-12-01T13:48:57.352Z,101310.14
2022-12-01T13:54:29.915Z,101305.76
2022-12-01T14:00:04.996Z,101300.52
2022-12-01T14:05:57.622Z,101304.49
2022-12-01T14:11:07.669Z,101300.94
2022-12-01T14:16:17.167Z,101301.13
2022-12-01T14:21:46.303Z,101298.14
2022-12-01T14:26:54.840Z,101296.66
2022-12-01T14:32:25.423Z,101304.30
2022-12-01T14:37:42.077Z,101302.35
2022-12-01T14:43:12.986Z,101303.16
2022-12-01T14:48:27.316Z,101305.54
2022-12-01T14:53:39.582Z,101307.59
2022-12-01T14:58:54.793Z,101304.77
2022-12-01T15:04:04.679Z,101300.22
2022-12-01T15:14:51.824Z,101299.08
2022-12-01T15:20:00.736Z,101292.07
2022-12-01T15:25:15.335Z,101296.57
2022-12-01T15:30:23.346Z,101296.52
2022-12-01T15:35:31.306Z,101292.61
2022-12-01T15:46:15.697Z,101290.79
2022-12-01T15:51:29.433Z,101290.38
2022-12-01T15:56:39.796Z,101285.73
2022-12-01T16:01:48.140Z,101284.34
2022-12-01T16:07:02.705Z,101290.36
2022-12-01T16:12:27.127Z,101289.59
2022-12-01T16:17:46.231Z,101288.52
2022-12-01T16:22:59.543Z,101288.10
2022-12-01T16:28:09.659Z,101292.02
2022-12-01T16:33:22.307Z,101293.71
2022-12-01T16:38:31.065Z,101303.73
2022-12-01T16:43:39.057Z,101297.42
2022-12-01T16:48:46.922Z,101295.98
2022-12-01T16:53:55.820Z,101289.97
2022-12-01T16:59:05.116Z,101284.80
2022-12-01T17:04:13.350Z,101280.12
2022-12-01T17:09:21.500Z,101285.53
2022-12-01T17:14:29.272Z,101284.75
2022-12-01T17:19:36.915Z,101285.52
2022-12-01T17:24:44.973Z,101288.98
2022-12-01T17:29:53.107Z,101293.80
2022-12-01T17:35:00.666Z,101285.60
2022-12-01T17:40:09.740Z,101284.95
2022-12-01T17:45:17.213Z,101284.09
2022-12-01T17:50:24.667Z,101286.84
2022-12-01T17:55:32.065Z,101289.95
2022-12-01T18:00:39.546Z,101292.00
2022-12-01T18:05:47.133Z,101291.63
2022-12-01T18:10:54.934Z,101286.91
2022-12-01T18:16:02.679Z,101288.83
2022-12-01T18:21:12.769Z,101293.63
2022-12-01T18:26:22.567Z,101290.11
2022-12-01T18:31:31.093Z,101294.61
2022-12-01T18:36:40.287Z,101291.60
2022-12-01T18:41:47.678Z,101295.23
2022-12-01T18:46:55.200Z,101295.56
2022-12-01T18:52:04.133Z,101293.08
2022-12-01T18:57:12.443Z,101293.57
2022-12-01T19:02:20.002Z,101290.20
2022-12-01T19:07:30.018Z,101288.77
2022-12-01T19:12:41.120Z,101293.58
2022-12-01T19:17:48.964Z,101295.27
2022-12-01T19:22:56.374Z,101301.61
2022-12-01T19:28:04.287Z,101300.09
2022-12-01T19:33:11.725Z,101294.40
2022-12-01T19:38:19.154Z,101288.84
2022-12-01T19:43:26.512Z,101292.14
2022-12-01T19:48:34.204Z,101297.38
2022-12-01T19:53:41.523Z,101300.08
2022-12-01T19:58:49.736Z,101302.60
2022-12-01T20:03:57.965Z,101308.64
2022-12-01T20:09:07.140Z,101312.43
2022-12-01T20:14:14.766Z,101308.62
2022-12-01T20:19:22.195Z,101309.15
2022-12-01T20:24:29.744Z,101306.90
2022-12-01T20:29:38.011Z,101311.23
2022-12-01T20:34:46.164Z,101310.70
2022-12-01T20:39:53.846Z,101305.65
2022-12-01T20:45:02.432Z,101304.20
2022-12-01T20:50:11.608Z,101308.14
2022-12-01T20:55:19.285Z,101304.00
2022-12-01T21:00:27.005Z,101301.23
2022-12-01T21:05:34.764Z,101294.85
2022-12-01T21:10:45.205Z,101301.33
2022-12-01T21:16:03.464Z,101303.94
2022-12-01T21:21:26.948Z,101290.77
2022-12-01T21:26:34.252Z,101305.94
2022-12-01T21:31:41.805Z,101302.42
2022-12-01T21:36:50.385Z,101304.34
2022-12-01T21:42:01.995Z,101304.51
2022-12-01T21:47:21.896Z,101303.81
2022-12-01T21:52:33.566Z,101298.98
2022-12-01T21:57:45.053Z,101302.63
2022-12-01T22:03:16.385Z,101301.41
2022-12-01T22:08:28.165Z,101302.95
2022-12-01T22:13:43.613Z,101308.81
2022-12-01T22:18:54.325Z,101312.73
2022-12-01T22:24:13.026Z,101305.89
2022-12-01T22:29:30.342Z,101308.39
2022-12-01T22:34:38.106Z,101306.08
2022-12-01T22:39:47.148Z,101304.33
2022-12-01T22:44:54.687Z,101301.38
2022-12-01T22:50:02.388Z,101297.41
2022-12-01T22:55:17.281Z,101295.13
2022-12-01T23:00:28.233Z,101289.89
2022-12-01T23:05:36.150Z,101288.82
2022-12-01T23:10:44.417Z,101280.46
2022-12-01T23:15:53.393Z,101272.39
2022-12-01T23:21:02.286Z,101278.09
2022-12-01T23:26:10.868Z,101276.14
2022-12-01T23:31:18.208Z,101269.19
2022-12-01T23:36:29.427Z,101267.79
2022-12-01T23:41:40.889Z,101272.99
2022-12-01T23:46:49.315Z,101268.84
2022-12-01T23:51:58.669Z,101266.59
2022-12-01T23:57:12.779Z,101260.53
